createdAt,value
2018-11-10T00:00:20.806Z,22.13
2018-11-10T00:02:50.215Z,22.03
2018-11-10T00:05:19.240Z,21.20
2018-11-10T00:07:47.443Z,21.03
2018-11-10T00:10:16.416Z,20.47
2018-11-10T00:12:45.018Z,20.50
2018-11-10T00:15:14.324Z,18.50
2018-11-10T00:17:42.472Z,19.90
2018-11-10T00:20:11.471Z,20.77
2018-11-10T00:22:40.696Z,19.00
2018-11-10T00:25:10.482Z,18.97
2018-11-10T00:27:38.770Z,18.93
2018-11-10T00:30:07.580Z,18.87
2018-11-10T00:32:35.806Z,19.53
2018-11-10T00:35:04.003Z,19.00
2018-11-10T00:37:32.444Z,19.70
2018-11-10T00:40:00.605Z,20.00
2018-11-10T00:42:28.903Z,19.53
2018-11-10T00:44:57.043Z,19.07
2018-11-10T00:47:25.485Z,19.63
2018-11-10T00:49:53.625Z,19.53
2018-11-10T00:52:21.946Z,19.00
2018-11-10T00:54:50.204Z,19.20
2018-11-10T00:57:18.437Z,20.27
2018-11-10T00:59:46.879Z,19.60
2018-11-10T01:02:15.014Z,20.87
2018-11-10T01:04:43.219Z,19.40
2018-11-10T01:07:11.401Z,20.37
2018-11-10T01:09:39.955Z,21.80
2018-11-10T01:12:08.115Z,20.33
2018-11-10T01:14:36.524Z,19.63
2018-11-10T01:17:04.662Z,19.07
2018-11-10T01:19:33.154Z,18.27
2018-11-10T01:22:01.632Z,17.37
2018-11-10T01:24:30.187Z,17.90
2018-11-10T01:26:58.461Z,18.53
2018-11-10T01:29:26.619Z,16.87
2018-11-10T01:31:54.839Z,17.43
2018-11-10T01:34:23.421Z,17.80
2018-11-10T01:36:51.542Z,16.77
2018-11-10T01:39:20.071Z,17.17
2018-11-10T01:41:48.259Z,17.47
2018-11-10T01:44:16.710Z,16.47
2018-11-10T01:46:44.872Z,17.87
2018-11-10T01:49:13.676Z,16.67
2018-11-10T01:51:41.826Z,17.33
2018-11-10T01:54:10.340Z,17.77
2018-11-10T01:56:38.797Z,18.27
2018-11-10T01:59:07.002Z,18.00
2018-11-10T02:01:35.154Z,16.43
2018-11-10T02:04:03.355Z,16.93
2018-11-10T02:06:31.886Z,16.67
2018-11-10T02:09:00.367Z,16.37
2018-11-10T02:11:28.523Z,16.10
2018-11-10T02:13:56.662Z,16.33
2018-11-10T02:16:24.836Z,16.03
2018-11-10T02:18:53.406Z,16.23
2018-11-10T02:21:21.847Z,17.13
2018-11-10T02:23:50.012Z,16.73
2018-11-10T02:26:18.419Z,15.77
2018-11-10T02:28:46.583Z,15.97
2018-11-10T02:31:15.012Z,15.23
2018-11-10T02:33:43.503Z,15.93
2018-11-10T02:36:11.692Z,15.60
2018-11-10T02:38:40.217Z,15.73
2018-11-10T02:41:08.561Z,16.70
2018-11-10T02:43:36.686Z,14.80
2018-11-10T02:46:05.232Z,14.53
2018-11-10T02:48:33.418Z,15.03
2018-11-10T02:51:01.916Z,14.73
2018-11-10T02:53:30.073Z,15.50
2018-11-10T02:55:58.514Z,15.47
2018-11-10T02:58:26.703Z,15.03
2018-11-10T03:00:55.183Z,14.93
2018-11-10T03:03:23.367Z,14.10
2018-11-10T03:05:51.815Z,15.13
2018-11-10T03:08:20.287Z,15.57
2018-11-10T03:10:48.628Z,15.30
2018-11-10T03:13:16.858Z,15.43
2018-11-10T03:15:45.014Z,15.60
2018-11-10T03:18:13.174Z,14.73
2018-11-10T03:20:41.418Z,14.40
2018-11-10T03:23:09.660Z,15.23
2018-11-10T03:25:38.096Z,14.87
2018-11-10T03:28:06.847Z,15.27
2018-11-10T03:30:35.304Z,15.47
2018-11-10T03:33:03.459Z,16.57
2018-11-10T03:35:31.879Z,16.73
2018-11-10T03:38:00.071Z,16.60
2018-11-10T03:40:28.478Z,15.97
2018-11-10T03:42:56.616Z,16.97
2018-11-10T03:45:25.166Z,15.80
2018-11-10T03:47:53.277Z,16.30
2018-11-10T03:50:21.448Z,16.00
2018-11-10T03:52:49.956Z,16.50
2018-11-10T03:55:18.102Z,16.57
2018-11-10T03:57:46.573Z,16.50
2018-11-10T04:00:15.614Z,17.23
2018-11-10T04:02:45.732Z,16.93
2018-11-10T04:05:14.865Z,16.27
2018-11-10T04:07:44.333Z,15.97
2018-11-10T04:10:13.099Z,15.10
2018-11-10T04:12:41.706Z,14.77
2018-11-10T04:15:09.886Z,14.77
2018-11-10T04:17:38.550Z,13.60
2018-11-10T04:20:08.057Z,16.27
2018-11-10T04:22:37.236Z,16.67
2018-11-10T04:25:08.686Z,17.03
2018-11-10T04:27:37.196Z,17.10
2018-11-10T04:30:06.054Z,16.50
2018-11-10T04:32:34.982Z,18.67
2018-11-10T04:35:03.500Z,17.27
2018-11-10T04:37:32.120Z,17.17
2018-11-10T04:40:00.554Z,16.97
2018-11-10T04:42:28.713Z,16.37
2018-11-10T04:44:56.872Z,14.80
2018-11-10T04:47:25.276Z,14.40
2018-11-10T04:49:53.639Z,15.43
2018-11-10T04:52:21.908Z,15.57
2018-11-10T04:54:50.365Z,15.50
2018-11-10T04:57:18.521Z,17.10
2018-11-10T04:59:46.736Z,15.90
2018-11-10T05:02:15.171Z,16.10
2018-11-10T05:04:43.334Z,16.83
2018-11-10T05:07:11.792Z,15.97
2018-11-10T05:09:39.953Z,15.70
2018-11-10T05:12:08.407Z,15.80
2018-11-10T05:14:36.832Z,14.17
2018-11-10T05:17:05.743Z,15.43
2018-11-10T05:19:33.925Z,14.80
2018-11-10T05:22:02.118Z,16.27
2018-11-10T05:24:30.583Z,15.93
2018-11-10T05:26:58.738Z,14.87
2018-11-10T05:29:27.166Z,15.70
2018-11-10T05:31:55.609Z,16.47
2018-11-10T05:34:23.778Z,16.50
2018-11-10T05:36:52.325Z,16.33
2018-11-10T05:39:20.495Z,16.73
2018-11-10T05:41:48.645Z,16.77
2018-11-10T05:44:16.781Z,16.27
2018-11-10T05:46:44.967Z,16.83
2018-11-10T05:49:13.371Z,16.03
2018-11-10T05:51:41.894Z,15.63
2018-11-10T05:54:10.295Z,14.83
2018-11-10T05:56:38.476Z,15.23
2018-11-10T05:59:06.626Z,15.40
2018-11-10T06:01:34.799Z,14.70
2018-11-10T06:04:03.324Z,14.67
2018-11-10T06:06:31.528Z,14.43
2018-11-10T06:08:59.960Z,13.63
2018-11-10T06:11:28.619Z,14.93
2018-11-10T06:13:56.755Z,12.87
2018-11-10T06:16:25.171Z,13.00
2018-11-10T06:18:53.438Z,14.27
2018-11-10T06:21:22.045Z,13.23
2018-11-10T06:23:50.208Z,13.67
2018-11-10T06:26:18.392Z,13.67
2018-11-10T06:28:46.564Z,13.00
2018-11-10T06:31:15.026Z,13.33
2018-11-10T06:33:43.617Z,13.80
2018-11-10T06:36:11.809Z,13.07
2018-11-10T06:38:40.261Z,14.00
2018-11-10T06:41:08.668Z,13.17
2018-11-10T06:43:36.985Z,12.07
2018-11-10T06:46:05.151Z,10.70
2018-11-10T06:48:33.295Z,11.63
2018-11-10T06:51:01.457Z,12.63
2018-11-10T06:53:30.011Z,12.33
2018-11-10T06:55:58.476Z,12.73
2018-11-10T06:58:26.606Z,12.53
2018-11-10T07:00:55.145Z,12.70
2018-11-10T07:03:23.332Z,12.77
2018-11-10T07:05:52.000Z,12.23
2018-11-10T07:08:20.150Z,13.53
2018-11-10T07:10:48.344Z,12.50
2018-11-10T07:13:17.655Z,11.90
2018-11-10T07:15:45.862Z,11.30
2018-11-10T07:18:14.482Z,12.57
2018-11-10T07:20:42.722Z,10.87
2018-11-10T07:23:10.862Z,11.20
2018-11-10T07:25:39.058Z,11.37
2018-11-10T07:28:07.198Z,11.53
2018-11-10T07:30:35.420Z,11.93
2018-11-10T07:33:03.650Z,12.57
2018-11-10T07:35:32.119Z,12.20
2018-11-10T07:38:00.311Z,11.20
2018-11-10T07:40:28.545Z,11.77
2018-11-10T07:42:56.723Z,12.10
2018-11-10T07:45:25.331Z,12.30
2018-11-10T07:47:55.515Z,12.33
2018-11-10T07:50:23.651Z,12.67
2018-11-10T07:52:52.135Z,12.27
2018-11-10T07:55:20.561Z,13.10
2018-11-10T07:57:48.758Z,12.23
2018-11-10T08:00:17.828Z,12.47
2018-11-10T08:02:46.016Z,11.93
2018-11-10T08:05:15.064Z,11.80
2018-11-10T08:07:43.817Z,11.87
2018-11-10T08:10:12.928Z,11.30
2018-11-10T08:12:41.507Z,10.90
2018-11-10T08:15:12.467Z,10.77
2018-11-10T08:17:41.259Z,10.57
2018-11-10T08:20:10.475Z,11.37
2018-11-10T08:22:38.635Z,11.13
2018-11-10T08:25:08.904Z,10.73
2018-11-10T08:27:37.299Z,11.53
2018-11-10T08:30:06.399Z,10.73
2018-11-10T08:32:34.863Z,11.03
2018-11-10T08:35:03.475Z,10.27
2018-11-10T08:37:32.057Z,10.83
2018-11-10T08:40:00.544Z,10.67
2018-11-10T08:42:28.656Z,10.20
2018-11-10T08:44:57.124Z,10.97
2018-11-10T08:47:25.294Z,10.33
2018-11-10T08:49:53.430Z,10.07
2018-11-10T08:52:21.577Z,10.10
2018-11-10T08:54:50.023Z,10.13
2018-11-10T08:57:18.572Z,10.37
2018-11-10T08:59:47.560Z,10.80
2018-11-10T09:02:16.171Z,10.10
2018-11-10T09:04:44.349Z,10.70
2018-11-10T09:07:12.530Z,9.47
2018-11-10T09:09:40.857Z,10.20
2018-11-10T09:12:09.948Z,10.30
2018-11-10T09:14:38.362Z,9.93
2018-11-10T09:17:06.922Z,10.70
2018-11-10T09:19:35.419Z,10.63
2018-11-10T09:22:03.577Z,10.90
2018-11-10T09:24:32.078Z,11.83
2018-11-10T09:27:00.253Z,12.90
2018-11-10T09:29:29.123Z,10.03
2018-11-10T09:31:57.292Z,10.23
2018-11-10T09:34:25.464Z,9.10
2018-11-10T09:36:53.590Z,10.03
2018-11-10T09:39:21.762Z,9.63
2018-11-10T09:41:50.363Z,10.27
2018-11-10T09:44:18.642Z,9.73
2018-11-10T09:46:46.802Z,9.40
2018-11-10T09:49:15.576Z,9.90
2018-11-10T09:51:43.814Z,11.23
2018-11-10T09:54:12.330Z,12.13
2018-11-10T09:56:40.783Z,10.93
2018-11-10T09:59:09.255Z,10.17
2018-11-10T10:01:37.525Z,10.70
2018-11-10T10:04:06.317Z,9.13
2018-11-10T10:06:34.776Z,10.83
2018-11-10T10:09:03.828Z,9.60
2018-11-10T10:11:32.065Z,9.03
2018-11-10T10:14:00.350Z,9.80
2018-11-10T10:16:28.677Z,9.80
2018-11-10T10:18:56.957Z,9.60
2018-11-10T10:21:25.456Z,9.20
2018-11-10T10:23:53.646Z,14.13
2018-11-10T10:26:21.815Z,10.03
2018-11-10T10:28:50.345Z,9.53
2018-11-10T10:31:18.621Z,8.83
2018-11-10T10:33:47.119Z,9.40
2018-11-10T10:36:15.318Z,9.33
2018-11-10T10:38:43.471Z,8.90
2018-11-10T10:41:11.659Z,9.30
2018-11-10T10:43:40.185Z,9.50
2018-11-10T10:46:08.375Z,8.77
2018-11-10T10:48:36.845Z,8.90
2018-11-10T10:51:05.683Z,11.27
2018-11-10T10:53:33.839Z,9.80
2018-11-10T10:56:02.498Z,9.57
2018-11-10T10:58:31.382Z,9.50
2018-11-10T11:01:05.544Z,9.93
2018-11-10T11:03:39.310Z,10.00
2018-11-10T11:06:07.562Z,9.63
2018-11-10T11:08:35.928Z,9.33
2018-11-10T11:11:04.485Z,11.00
2018-11-10T11:13:32.766Z,10.60
2018-11-10T11:16:01.238Z,11.27
2018-11-10T11:18:29.551Z,11.07
2018-11-10T11:20:57.783Z,10.97
2018-11-10T11:23:25.991Z,10.80
2018-11-10T11:25:54.442Z,11.17
2018-11-10T11:28:22.592Z,11.73
2018-11-10T11:30:50.740Z,11.43
2018-11-10T11:33:19.008Z,11.97
2018-11-10T11:35:47.426Z,12.33
2018-11-10T11:38:16.040Z,12.93
2018-11-10T11:40:44.208Z,12.47
2018-11-10T11:43:12.464Z,12.60
2018-11-10T11:45:40.605Z,11.83
2018-11-10T11:48:08.823Z,12.10
2018-11-10T11:50:37.035Z,16.13
2018-11-10T11:53:05.671Z,11.90
2018-11-10T11:55:33.806Z,12.97
2018-11-10T11:58:02.413Z,12.33
2018-11-10T12:00:30.890Z,12.80
2018-11-10T12:02:59.101Z,12.30
2018-11-10T12:05:27.236Z,11.60
2018-11-10T12:07:55.926Z,14.63
2018-11-10T12:10:24.100Z,12.63
2018-11-10T12:12:52.578Z,15.20
2018-11-10T12:15:21.126Z,12.10
2018-11-10T12:17:49.767Z,11.97
2018-11-10T12:20:18.205Z,12.30
2018-11-10T12:22:46.835Z,13.33
2018-11-10T12:25:15.511Z,10.77
2018-11-10T12:27:44.205Z,10.93
2018-11-10T12:30:13.064Z,11.73
2018-11-10T12:32:41.701Z,11.57
2018-11-10T12:35:11.550Z,10.93
2018-11-10T12:37:39.654Z,10.57
2018-11-10T12:40:09.486Z,10.60
2018-11-10T12:42:38.834Z,10.60
2018-11-10T12:45:07.414Z,10.77
2018-11-10T12:47:35.866Z,10.77
2018-11-10T12:50:04.918Z,9.20
2018-11-10T12:52:33.053Z,9.87
2018-11-10T12:55:01.269Z,10.80
2018-11-10T12:57:29.813Z,11.30
2018-11-10T12:59:57.986Z,10.50
2018-11-10T13:02:26.435Z,10.40
2018-11-10T13:04:54.895Z,10.90
2018-11-10T13:07:23.431Z,11.47
2018-11-10T13:09:51.874Z,9.83
2018-11-10T13:12:20.378Z,10.80
2018-11-10T13:14:48.804Z,9.93
2018-11-10T13:17:17.294Z,9.87
2018-11-10T13:19:45.906Z,10.43
2018-11-10T13:22:14.345Z,9.83
2018-11-10T13:24:42.780Z,10.33
2018-11-10T13:27:11.317Z,10.67
2018-11-10T13:29:39.957Z,10.27
2018-11-10T13:32:08.375Z,12.97
2018-11-10T13:34:36.896Z,16.50
2018-11-10T13:37:05.598Z,13.07
2018-11-10T13:39:33.798Z,12.43
2018-11-10T13:42:02.248Z,11.40
2018-11-10T13:44:30.724Z,11.23
2018-11-10T13:46:59.073Z,11.40
2018-11-10T13:49:27.510Z,15.43
2018-11-10T13:51:56.031Z,15.43
2018-11-10T13:54:24.034Z,13.50
2018-11-10T13:56:52.169Z,13.87
2018-11-10T13:59:20.408Z,13.90
2018-11-10T14:01:48.765Z,14.10
2018-11-10T14:04:16.976Z,14.27
2018-11-10T14:06:45.256Z,14.30
2018-11-10T14:09:13.460Z,17.67
2018-11-10T14:11:42.369Z,29.43
2018-11-10T14:14:11.058Z,17.40
2018-11-10T14:16:39.870Z,17.63
2018-11-10T14:19:08.433Z,17.80
2018-11-10T14:21:36.809Z,17.33
2018-11-10T14:24:05.399Z,18.67
2018-11-10T14:26:33.560Z,19.33
2018-11-10T14:29:02.011Z,20.07
2018-11-10T14:31:30.279Z,20.63
2018-11-10T14:33:58.415Z,16.67
2018-11-10T14:36:26.920Z,16.60
2018-11-10T14:38:55.186Z,16.37
2018-11-10T14:41:23.434Z,16.87
2018-11-10T14:43:51.907Z,16.80
2018-11-10T14:46:20.321Z,17.20
2018-11-10T14:48:48.477Z,16.67
2018-11-10T14:51:16.635Z,17.03
2018-11-10T14:53:44.778Z,16.10
2018-11-10T14:56:12.955Z,17.97
2018-11-10T14:58:41.205Z,18.73
2018-11-10T15:01:09.507Z,18.23
2018-11-10T15:03:37.658Z,17.80
2018-11-10T15:06:05.852Z,18.33
2018-11-10T15:08:34.010Z,19.07
2018-11-10T15:11:02.218Z,19.60
2018-11-10T15:13:30.701Z,19.77
2018-11-10T15:15:59.163Z,18.10
2018-11-10T15:18:27.682Z,20.13
2018-11-10T15:20:56.345Z,21.00
2018-11-10T15:23:24.807Z,22.33
2018-11-10T15:25:53.286Z,27.90
2018-11-10T15:28:21.714Z,29.13
2018-11-10T15:30:50.146Z,34.93
2018-11-10T15:33:18.562Z,26.50
2018-11-10T15:35:47.012Z,38.00
2018-11-10T15:38:15.454Z,25.63
2018-11-10T15:40:43.899Z,24.40
2018-11-10T15:43:12.378Z,26.37
2018-11-10T15:45:40.832Z,24.80
2018-11-10T15:48:09.284Z,24.73
2018-11-10T15:50:37.844Z,23.13
2018-11-10T15:53:06.426Z,25.27
2018-11-10T15:55:35.073Z,30.20
2018-11-10T15:58:03.461Z,25.90
2018-11-10T16:00:31.903Z,28.27
2018-11-10T16:03:00.390Z,23.73
2018-11-10T16:05:28.944Z,22.70
2018-11-10T16:07:57.422Z,23.60
2018-11-10T16:10:26.193Z,24.23
2018-11-10T16:12:54.967Z,22.63
2018-11-10T16:15:23.522Z,25.53
2018-11-10T16:17:51.963Z,22.93
2018-11-10T16:20:20.854Z,23.80
2018-11-10T16:22:50.529Z,22.30
2018-11-10T16:25:19.294Z,26.90
2018-11-10T16:27:47.822Z,30.97
2018-11-10T16:30:17.733Z,27.00
2018-11-10T16:32:46.391Z,24.27
2018-11-10T16:35:14.875Z,22.33
2018-11-10T16:37:43.274Z,23.13
2018-11-10T16:40:14.142Z,21.27
2018-11-10T16:42:43.621Z,22.00
2018-11-10T16:45:13.202Z,21.47
2018-11-10T16:47:41.917Z,22.40
2018-11-10T16:50:10.899Z,21.73
2018-11-10T16:52:39.871Z,25.37
2018-11-10T16:55:08.678Z,26.07
2018-11-10T16:57:37.547Z,20.80
2018-11-10T17:00:08.849Z,20.47
2018-11-10T17:02:37.279Z,21.13
2018-11-10T17:05:06.474Z,19.40
2018-11-10T17:07:35.069Z,17.37
2018-11-10T17:10:03.550Z,17.87
2018-11-10T17:12:32.008Z,17.67
2018-11-10T17:15:00.418Z,26.20
2018-11-10T17:17:29.006Z,25.67
2018-11-10T17:19:57.497Z,27.50
2018-11-10T17:22:26.104Z,27.70
2018-11-10T17:24:54.820Z,19.30
2018-11-10T17:27:23.276Z,20.80
2018-11-10T17:29:58.425Z,18.70
2018-11-10T17:32:27.041Z,16.93
2018-11-10T17:34:55.548Z,18.43
2018-11-10T17:37:24.061Z,16.20
2018-11-10T17:39:52.725Z,15.43
2018-11-10T17:42:21.327Z,15.93
2018-11-10T17:44:49.846Z,15.53
2018-11-10T17:47:18.352Z,15.43
2018-11-10T17:49:46.795Z,15.53
2018-11-10T17:52:15.338Z,15.17
2018-11-10T17:54:43.960Z,15.70
2018-11-10T17:57:12.494Z,16.67
2018-11-10T17:59:40.927Z,16.43
2018-11-10T18:02:09.568Z,17.17
2018-11-10T18:04:38.176Z,17.33
2018-11-10T18:07:07.193Z,17.83
2018-11-10T18:09:35.694Z,16.40
2018-11-10T18:12:04.330Z,16.00
2018-11-10T18:14:33.004Z,16.10
2018-11-10T18:17:01.573Z,17.17
2018-11-10T18:19:30.191Z,15.30
2018-11-10T18:21:58.621Z,16.63
2018-11-10T18:24:27.839Z,16.90
2018-11-10T18:26:56.341Z,20.77
2018-11-10T18:29:24.822Z,16.73
2018-11-10T18:31:53.299Z,18.17
2018-11-10T18:34:21.787Z,17.60
2018-11-10T18:36:50.272Z,17.30
2018-11-10T18:39:18.788Z,16.63
2018-11-10T18:41:47.640Z,18.90
2018-11-10T18:44:16.092Z,21.30
2018-11-10T18:46:44.756Z,36.17
2018-11-10T18:49:13.840Z,21.83
2018-11-10T18:51:42.387Z,21.00
2018-11-10T18:54:11.027Z,20.17
2018-11-10T18:56:39.641Z,22.03
2018-11-10T18:59:08.207Z,19.37
2018-11-10T19:01:36.671Z,17.47
2018-11-10T19:04:05.292Z,19.60
2018-11-10T19:06:33.755Z,18.40
2018-11-10T19:09:02.229Z,20.63
2018-11-10T19:11:30.823Z,18.77
2018-11-10T19:13:59.238Z,19.90
2018-11-10T19:16:27.687Z,21.17
2018-11-10T19:18:56.102Z,22.17
2018-11-10T19:21:24.747Z,21.63
2018-11-10T19:23:53.200Z,21.87
2018-11-10T19:26:21.693Z,22.07
2018-11-10T19:28:50.086Z,21.87
2018-11-10T19:31:18.607Z,20.80
2018-11-10T19:33:47.059Z,20.63
2018-11-10T19:36:15.523Z,20.33
2018-11-10T19:38:43.984Z,22.37
2018-11-10T19:41:12.713Z,23.67
2018-11-10T19:43:41.147Z,22.53
2018-11-10T19:46:09.642Z,22.67
2018-11-10T19:48:38.116Z,22.13
2018-11-10T19:51:10.933Z,23.67
2018-11-10T19:53:39.905Z,21.50
2018-11-10T19:56:08.876Z,22.83
2018-11-10T19:58:37.360Z,23.23
2018-11-10T20:01:06.056Z,23.63
2018-11-10T20:03:34.524Z,22.73
2018-11-10T20:06:02.942Z,23.00
2018-11-10T20:08:31.406Z,27.23
2018-11-10T20:10:59.831Z,25.73
2018-11-10T20:13:28.339Z,23.13
2018-11-10T20:15:56.768Z,23.27
2018-11-10T20:18:25.249Z,21.60
2018-11-10T20:20:53.719Z,20.60
2018-11-10T20:23:22.175Z,21.80
2018-11-10T20:25:50.717Z,21.27
2018-11-10T20:28:19.170Z,21.83
2018-11-10T20:30:47.678Z,22.83
2018-11-10T20:33:16.118Z,21.60
2018-11-10T20:35:44.584Z,21.93
2018-11-10T20:38:13.040Z,46.10
2018-11-10T20:40:41.517Z,24.37
2018-11-10T20:43:10.099Z,21.47
2018-11-10T20:45:38.587Z,21.23
2018-11-10T20:48:07.068Z,21.17
2018-11-10T20:50:35.510Z,20.73
2018-11-10T20:53:04.000Z,20.03
2018-11-10T20:55:32.453Z,21.40
2018-11-10T20:58:01.087Z,21.93
2018-11-10T21:00:29.559Z,27.17
2018-11-10T21:02:58.216Z,24.27
2018-11-10T21:05:26.692Z,24.63
2018-11-10T21:07:55.214Z,21.73
2018-11-10T21:10:23.714Z,21.30
2018-11-10T21:12:52.402Z,21.17
2018-11-10T21:15:21.410Z,23.27
2018-11-10T21:17:49.960Z,22.70
2018-11-10T21:20:18.837Z,23.50
2018-11-10T21:22:47.454Z,22.63
2018-11-10T21:25:17.205Z,23.80
2018-11-10T21:27:46.003Z,21.67
2018-11-10T21:30:17.852Z,20.87
2018-11-10T21:32:46.977Z,21.80
2018-11-10T21:35:15.884Z,24.20
2018-11-10T21:37:44.446Z,21.70
2018-11-10T21:40:20.534Z,22.13
2018-11-10T21:42:49.041Z,22.03
2018-11-10T21:45:18.070Z,19.47
2018-11-10T21:47:46.867Z,18.63
2018-11-10T21:50:18.778Z,19.27
2018-11-10T21:52:47.332Z,19.73
2018-11-10T21:55:18.052Z,20.10
2018-11-10T21:57:47.239Z,19.03
2018-11-10T22:00:17.294Z,19.60
2018-11-10T22:02:46.031Z,19.77
2018-11-10T22:05:14.806Z,18.13
2018-11-10T22:07:43.241Z,18.90
2018-11-10T22:10:13.280Z,20.80
2018-11-10T22:12:42.028Z,19.57
2018-11-10T22:15:14.210Z,19.30
2018-11-10T22:17:43.636Z,18.93
2018-11-10T22:20:13.676Z,20.90
2018-11-10T22:22:42.187Z,21.47
2018-11-10T22:25:11.623Z,20.37
2018-11-10T22:27:41.370Z,20.23
2018-11-10T22:30:11.542Z,20.40
2018-11-10T22:32:39.982Z,17.13
2018-11-10T22:35:08.910Z,17.63
2018-11-10T22:37:37.440Z,18.77
2018-11-10T22:40:07.180Z,20.33
2018-11-10T22:42:36.424Z,18.87
2018-11-10T22:45:05.424Z,17.77
2018-11-10T22:47:33.875Z,22.53
2018-11-10T22:50:02.391Z,24.07
2018-11-10T22:52:30.897Z,19.93
2018-11-10T22:54:59.351Z,17.93
2018-11-10T22:57:27.859Z,19.53
2018-11-10T22:59:56.347Z,18.57
2018-11-10T23:02:24.902Z,19.60
2018-11-10T23:04:53.480Z,21.13
2018-11-10T23:07:22.100Z,22.00
2018-11-10T23:09:50.526Z,19.67
2018-11-10T23:12:18.990Z,21.77
2018-11-10T23:14:47.422Z,19.30
2018-11-10T23:17:16.047Z,16.17
2018-11-10T23:19:44.651Z,16.27
2018-11-10T23:22:13.052Z,18.33
2018-11-10T23:24:41.468Z,16.20
2018-11-10T23:27:10.162Z,15.70
2018-11-10T23:29:38.681Z,16.93
2018-11-10T23:32:07.257Z,15.70
2018-11-10T23:34:35.704Z,15.90
2018-11-10T23:37:04.220Z,14.97
2018-11-10T23:39:32.697Z,14.70
2018-11-10T23:42:01.108Z,14.57
2018-11-10T23:44:29.658Z,14.67
2018-11-10T23:46:58.077Z,15.43
2018-11-10T23:49:26.530Z,14.53
2018-11-10T23:51:54.978Z,17.07
2018-11-10T23:54:23.638Z,17.90
2018-11-10T23:56:52.164Z,16.87
2018-11-10T23:59:20.638Z,16.33
